Time;durP1;ratioP1;P1;durP2;ratioP2;P2;SDS_P1;SDS_P2;PMS_P1;PMS_P2;Temp;Humidity;BMP_temperature;BMP_pressure;BME280_temperature;BME280_humidity;BME280_pressure;Samples;Min_cycle;Max_cycle;Signal;HPM_P1;HPM_P2
2022/02/15 00:00:15;;;;;;;9.25;3.30;;;;;;;5.95;90.34;99938.00;685101;28;1002;-51
2022/02/15 00:00:36;;;;;;;9.48;2.80;;;;;;;5.95;90.79;99938.00;685312;28;1314;-53
2022/02/15 00:00:56;;;;;;;8.30;2.80;;;;;;;5.94;90.54;99936.28;681920;28;3149;-55
2022/02/15 00:01:17;;;;;;;8.70;3.00;;;;;;;5.93;90.64;99936.28;681899;28;3616;-55
2022/02/15 00:01:37;;;;;;;7.67;2.97;;;;;;;5.93;90.54;99944.06;680770;28;1470;-54
2022/02/15 00:01:58;;;;;;;9.52;2.80;;;;;;;5.91;90.66;99940.56;682395;28;1295;-54
2022/02/15 00:02:18;;;;;;;10.13;2.77;;;;;;;5.89;91.29;99931.94;684378;28;1014;-56
2022/02/15 00:02:39;;;;;;;9.23;2.83;;;;;;;5.95;90.86;99937.13;681478;28;1201;-54
2022/02/15 00:03:01;;;;;;;8.93;2.97;;;;;;;5.97;90.85;99945.78;680810;28;4325;-52
2022/02/15 00:03:23;;;;;;;8.23;2.90;;;;;;;5.96;90.44;99938.84;678868;28;1105;-53
2022/02/15 00:03:45;;;;;;;8.43;3.15;;;;;;;5.94;90.78;99937.97;677595;28;2109;-52
2022/02/15 00:04:21;;;;;;;8.15;3.50;;;;;;;5.91;91.20;99936.28;681215;28;2106;-54
2022/02/15 00:04:47;;;;;;;6.63;2.60;;;;;;;5.97;90.56;99935.41;681456;28;3417;-55
2022/02/15 00:05:09;;;;;;;7.57;2.75;;;;;;;6.08;89.85;99928.53;682970;28;1975;-53
2022/02/15 00:05:29;;;;;;;7.72;3.00;;;;;;;6.09;89.53;99934.59;681115;28;3798;-55
2022/02/15 00:05:49;;;;;;;6.80;2.65;;;;;;;6.10;90.20;99936.31;681924;28;1556;-55
2022/02/15 00:06:10;;;;;;;7.77;2.87;;;;;;;6.10;89.88;99942.38;679525;28;4542;-53
2022/02/15 00:06:30;;;;;;;7.68;3.00;;;;;;;6.08;89.19;99936.31;681898;28;1807;-56
2022/02/15 00:06:51;;;;;;;6.70;2.90;;;;;;;6.07;89.26;99933.75;682173;28;2446;-52
2022/02/15 00:07:11;;;;;;;7.20;2.88;;;;;;;6.04;89.07;99937.19;686108;28;1275;-56
2022/02/15 00:07:32;;;;;;;7.83;2.90;;;;;;;6.02;90.08;99938.91;683909;28;3473;-53
2022/02/15 00:07:53;;;;;;;7.78;2.55;;;;;;;5.96;90.88;99944.06;685562;28;3144;-55
2022/02/15 00:08:14;;;;;;;6.97;2.58;;;;;;;5.96;91.06;99939.72;684059;28;1195;-53
2022/02/15 00:08:34;;;;;;;9.13;2.88;;;;;;;5.96;91.25;99942.31;679579;29;1663;-56
2022/02/15 00:08:54;;;;;;;8.93;3.13;;;;;;;5.96;91.19;99944.06;678355;28;4464;-54
2022/02/15 00:09:15;;;;;;;8.95;3.00;;;;;;;5.94;90.77;99944.06;679065;28;1461;-56
2022/02/15 00:09:35;;;;;;;9.83;2.77;;;;;;;5.94;90.78;99941.47;679932;29;1237;-56
2022/02/15 00:09:55;;;;;;;7.57;2.70;;;;;;;5.94;90.04;99940.56;679012;28;1318;-53
2022/02/15 00:10:16;;;;;;;6.75;2.53;;;;;;;5.94;89.68;99941.47;681472;28;3267;-53
2022/02/15 00:10:36;;;;;;;7.30;2.70;;;;;;;5.93;89.58;99939.72;684052;28;3510;-55
2022/02/15 00:10:57;;;;;;;7.55;3.00;;;;;;;5.93;90.65;99941.47;683909;28;1312;-53
2022/02/15 00:11:17;;;;;;;7.90;3.05;;;;;;;5.92;91.16;99937.13;684582;28;1407;-53
2022/02/15 00:11:38;;;;;;;7.47;2.73;;;;;;;5.92;90.75;99942.31;684530;28;1771;-57
2022/02/15 00:11:58;;;;;;;7.90;2.88;;;;;;;5.91;91.40;99943.16;685043;28;4871;-52
2022/02/15 00:12:19;;;;;;;8.70;2.80;;;;;;;5.93;91.30;99938.84;684906;28;1350;-53
2022/02/15 00:12:45;;;;;;;7.43;2.85;;;;;;;5.92;90.95;99942.31;682963;28;1568;-55
2022/02/15 00:13:07;;;;;;;7.50;2.70;;;;;;;5.97;89.90;99930.22;682181;28;2988;-56
2022/02/15 00:13:27;;;;;;;8.10;2.53;;;;;;;5.99;89.67;99938.91;680801;28;3846;-52
2022/02/15 00:13:47;;;;;;;6.70;2.80;;;;;;;5.98;90.65;99926.78;681412;28;2396;-51
2022/02/15 00:14:08;;;;;;;6.30;2.67;;;;;;;5.97;91.03;99940.59;681724;28;4150;-56
2022/02/15 00:14:29;;;;;;;8.10;2.60;;;;;;;5.95;91.33;99937.13;683267;28;1318;-54
2022/02/15 00:14:49;;;;;;;8.83;2.77;;;;;;;5.94;91.10;99941.47;683987;28;1590;-54
2022/02/15 00:15:11;;;;;;;8.93;2.60;;;;;;;5.92;90.95;99939.72;683958;28;4422;-56
2022/02/15 00:15:32;;;;;;;8.25;2.83;;;;;;;5.93;90.80;99942.31;680451;28;2863;-52
2022/02/15 00:15:53;;;;;;;7.55;3.03;;;;;;;5.93;90.92;99939.72;682873;28;1979;-55
2022/02/15 00:16:13;;;;;;;6.20;2.80;;;;;;;5.95;91.26;99939.72;679185;28;1988;-52
2022/02/15 00:16:33;;;;;;;7.43;3.08;;;;;;;5.93;90.96;99938.84;679989;28;1538;-53
2022/02/15 00:17:13;;;;;;;7.20;2.63;;;;;;;5.90;91.75;99942.31;676733;29;1158;-53
2022/02/15 00:17:35;;;;;;;9.18;3.03;;;;;;;5.89;91.45;99937.13;679196;29;1208;-55
2022/02/15 00:17:55;;;;;;;7.85;3.42;;;;;;;5.90;91.10;99933.66;679110;28;4629;-51
2022/02/15 00:18:16;;;;;;;8.57;3.07;;;;;;;5.91;90.92;99935.38;681437;28;1189;-50
2022/02/15 00:18:36;;;;;;;9.32;2.88;;;;;;;5.92;91.42;99937.13;683755;28;1535;-52
2022/02/15 00:18:57;;;;;;;7.33;2.83;;;;;;;5.92;90.90;99943.16;686531;28;4254;-50
2022/02/15 00:19:20;;;;;;;7.78;2.97;;;;;;;5.89;91.63;99931.94;686962;28;1883;-53
2022/02/15 00:19:41;;;;;;;9.15;3.03;;;;;;;5.89;91.33;99931.94;686501;28;2012;-54
2022/02/15 00:20:03;;;;;;;8.43;2.85;;;;;;;5.89;91.61;99939.72;688005;28;1038;-52
2022/02/15 00:20:24;;;;;;;8.88;2.85;;;;;;;5.95;91.37;99937.13;685370;28;1352;-56
2022/02/15 00:20:44;;;;;;;9.03;3.07;;;;;;;5.97;91.09;99941.50;684447;28;1399;-53
2022/02/15 00:21:05;;;;;;;8.20;3.03;;;;;;;5.97;90.48;99940.59;684183;28;4270;-52
2022/02/15 00:21:26;;;;;;;8.30;2.80;;;;;;;5.96;91.13;99944.06;684524;28;1092;-54
2022/02/15 00:21:46;;;;;;;7.20;2.70;;;;;;;5.96;91.17;99934.53;683002;28;3883;-53
2022/02/15 00:22:06;;;;;;;8.45;2.70;;;;;;;5.98;90.99;99939.75;683967;28;1364;-55
2022/02/15 00:22:27;;;;;;;8.03;2.70;;;;;;;5.94;91.30;99941.47;684984;28;1179;-52
2022/02/15 00:22:47;;;;;;;5.63;2.40;;;;;;;5.91;91.09;99938.84;685209;28;1037;-53
2022/02/15 00:23:07;;;;;;;5.97;2.53;;;;;;;5.92;90.67;99939.72;684779;28;1206;-53
2022/02/15 00:23:29;;;;;;;6.93;2.73;;;;;;;5.89;91.41;99944.91;685084;28;1031;-54
2022/02/15 00:23:50;;;;;;;6.32;3.00;;;;;;;5.87;91.67;99938.81;684671;28;1328;-55
2022/02/15 00:24:10;;;;;;;6.95;2.83;;;;;;;5.87;90.88;99938.81;683140;28;4529;-53
2022/02/15 00:24:30;;;;;;;6.87;2.50;;;;;;;5.89;90.51;99944.91;684697;28;3307;-54
2022/02/15 00:24:51;;;;;;;7.22;2.42;;;;;;;5.87;91.90;99939.72;683321;28;1589;-54
2022/02/15 00:25:13;;;;;;;9.03;2.67;;;;;;;5.89;91.94;99939.72;683938;28;3880;-55
2022/02/15 00:25:34;;;;;;;7.95;2.80;;;;;;;5.88;91.02;99940.56;683224;28;1213;-53
2022/02/15 00:25:54;;;;;;;8.73;2.80;;;;;;;5.88;91.57;99935.38;681980;28;1133;-51
2022/02/15 00:26:14;;;;;;;7.05;2.50;;;;;;;5.91;91.48;99940.56;681372;28;996;-55
2022/02/15 00:26:35;;;;;;;7.87;2.73;;;;;;;5.91;90.86;99945.75;681762;28;1123;-53
2022/02/15 00:26:55;;;;;;;6.40;2.37;;;;;;;5.90;90.52;99941.47;680784;28;4440;-51
2022/02/15 00:27:17;;;;;;;6.00;2.30;;;;;;;5.90;90.35;99941.47;682268;28;3058;-55
2022/02/15 00:27:37;;;;;;;5.85;2.63;;;;;;;5.89;91.95;99942.31;681222;28;4433;-54
2022/02/15 00:27:58;;;;;;;6.87;2.87;;;;;;;5.88;91.88;99943.16;679042;28;1941;-56
2022/02/15 00:28:18;;;;;;;7.97;2.35;;;;;;;5.88;91.36;99940.56;677025;29;1668;-54
2022/02/15 00:28:40;;;;;;;9.05;2.53;;;;;;;5.87;90.88;99937.13;675149;29;1410;-52
2022/02/15 00:29:01;;;;;;;7.63;2.60;;;;;;;5.88;91.57;99935.38;676592;29;1404;-52
2022/02/15 00:29:22;;;;;;;8.63;3.00;;;;;;;5.84;91.76;99941.41;675365;29;1278;-56
2022/02/15 00:29:45;;;;;;;8.50;2.70;;;;;;;5.84;91.96;99941.41;679816;28;1226;-55
2022/02/15 00:30:09;;;;;;;5.80;2.40;;;;;;;5.85;91.70;99946.59;680558;28;4362;-52
2022/02/15 00:30:30;;;;;;;6.30;2.42;;;;;;;5.86;91.44;99937.13;683477;28;1176;-53
2022/02/15 00:30:50;;;;;;;6.80;2.60;;;;;;;5.84;91.94;99939.69;681482;28;4178;-55
2022/02/15 00:31:10;;;;;;;7.18;2.50;;;;;;;5.84;91.42;99931.03;680587;28;1133;-52
2022/02/15 00:31:31;;;;;;;6.67;2.70;;;;;;;5.84;91.30;99933.63;679513;29;1218;-52
2022/02/15 00:31:51;;;;;;;7.63;2.77;;;;;;;5.82;91.91;99943.16;680321;29;1363;-52
2022/02/15 00:32:11;;;;;;;7.20;2.60;;;;;;;5.79;92.17;99939.69;679759;28;1200;-53
2022/02/15 00:32:32;;;;;;;9.10;2.70;;;;;;;5.77;92.63;99937.94;679398;28;1429;-56
2022/02/15 00:32:52;;;;;;;8.07;2.85;;;;;;;5.76;92.66;99941.38;680323;28;4642;-54
2022/02/15 00:33:12;;;;;;;8.23;2.80;;;;;;;5.75;93.04;99940.53;675721;29;3909;-55
2022/02/15 00:33:33;;;;;;;8.13;2.90;;;;;;;5.76;91.95;99941.38;678508;28;1643;-53
2022/02/15 00:33:56;;;;;;;7.10;2.50;;;;;;;5.73;92.76;99937.06;679312;29;1730;-53
2022/02/15 00:34:16;;;;;;;7.60;2.60;;;;;;;5.72;92.91;99945.72;678757;28;1240;-54
2022/02/15 00:34:37;;;;;;;7.82;2.70;;;;;;;5.78;92.54;99935.34;675837;29;1775;-55
2022/02/15 00:34:57;;;;;;;7.00;2.57;;;;;;;5.80;92.27;99941.41;676477;28;1647;-54
2022/02/15 00:35:18;;;;;;;6.57;2.47;;;;;;;5.84;91.89;99936.22;681983;28;1585;-52
2022/02/15 00:35:38;;;;;;;8.07;2.50;;;;;;;5.83;91.99;99937.97;680399;28;1152;-55
2022/02/15 00:35:59;;;;;;;8.20;2.58;;;;;;;5.80;92.25;99941.41;681683;28;4367;-53
2022/02/15 00:36:19;;;;;;;8.73;2.70;;;;;;;5.77;92.09;99941.41;682846;28;1746;-52
2022/02/15 00:36:41;;;;;;;7.13;2.55;;;;;;;5.76;92.95;99941.38;680765;28;1374;-53
2022/02/15 00:37:02;;;;;;;7.00;2.60;;;;;;;5.71;93.26;99943.13;681439;28;1279;-54
2022/02/15 00:37:23;;;;;;;6.53;2.70;;;;;;;5.66;93.51;99939.63;682266;28;1183;-49
2022/02/15 00:37:46;;;;;;;6.97;2.58;;;;;;;5.62;93.43;99944.81;681353;28;1242;-54
2022/02/15 00:38:06;;;;;;;7.27;2.40;;;;;;;5.60;92.96;99943.94;678881;28;1855;-54
2022/02/15 00:38:27;;;;;;;6.63;2.50;;;;;;;5.59;93.56;99944.81;679096;29;1223;-53
2022/02/15 00:38:47;;;;;;;6.97;2.40;;;;;;;5.60;93.04;99935.28;678501;28;3562;-55
2022/02/15 00:39:09;;;;;;;8.85;3.03;;;;;;;5.60;93.38;99941.34;675789;28;4469;-52
2022/02/15 00:39:29;;;;;;;8.20;3.15;;;;;;;5.63;93.04;99940.47;676312;29;1431;-55
2022/02/15 00:39:50;;;;;;;6.60;2.78;;;;;;;5.63;92.68;99940.47;678484;29;1097;-56
2022/02/15 00:40:12;;;;;;;5.90;2.50;;;;;;;5.63;92.94;99943.97;681096;28;1201;-56
2022/02/15 00:40:33;;;;;;;10.48;3.20;;;;;;;5.62;93.62;99946.53;679018;29;1087;-53
2022/02/15 00:40:55;;;;;;;7.80;3.33;;;;;;;5.61;93.46;99947.41;678766;28;1245;-51
2022/02/15 00:41:15;;;;;;;6.00;2.70;;;;;;;5.59;93.74;99943.94;681316;28;1066;-55
2022/02/15 00:41:35;;;;;;;7.90;2.53;;;;;;;5.56;93.58;99944.78;681438;28;3893;-55
2022/02/15 00:41:56;;;;;;;6.17;2.70;;;;;;;5.58;92.75;99952.56;680695;28;4916;-54
2022/02/15 00:42:16;;;;;;;7.35;2.58;;;;;;;5.59;94.11;99949.09;679314;29;1379;-54
2022/02/15 00:42:37;;;;;;;8.33;2.90;;;;;;;5.55;94.77;99942.19;676623;29;1531;-54
2022/02/15 00:42:58;;;;;;;7.97;2.70;;;;;;;5.57;93.91;99949.09;675748;29;1401;-54
2022/02/15 00:43:18;;;;;;;5.47;2.30;;;;;;;5.64;93.97;99947.41;677502;29;1611;-54
2022/02/15 00:43:39;;;;;;;7.10;2.65;;;;;;;5.61;94.15;99950.84;678029;29;1134;-52
2022/02/15 00:43:59;;;;;;;7.87;3.30;;;;;;;5.65;93.63;99948.25;678958;28;1530;-52
2022/02/15 00:44:20;;;;;;;10.80;3.47;;;;;;;5.64;93.73;99950.00;682255;28;3522;-55
2022/02/15 00:44:40;;;;;;;7.43;2.60;;;;;;;5.64;93.50;99950.00;681331;28;1053;-56
2022/02/15 00:45:03;;;;;;;9.15;2.72;;;;;;;5.63;92.90;99949.16;678463;28;4897;-53
2022/02/15 00:45:23;;;;;;;9.77;3.08;;;;;;;5.61;94.12;99947.41;681858;28;1223;-54
2022/02/15 00:45:44;;;;;;;11.17;3.57;;;;;;;5.60;93.51;99949.13;680260;28;1513;-53
2022/02/15 00:46:05;;;;;;;7.47;3.20;;;;;;;5.61;93.23;99952.59;680438;28;1271;-54
2022/02/15 00:46:26;;;;;;;8.73;3.30;;;;;;;5.59;94.16;99955.19;681067;28;994;-54
2022/02/15 00:46:46;;;;;;;8.75;3.05;;;;;;;5.58;94.29;99957.75;679954;28;1549;-52
2022/02/15 00:47:07;;;;;;;6.93;2.83;;;;;;;5.57;93.71;99954.28;680449;28;3447;-54
2022/02/15 00:47:28;;;;;;;6.00;2.58;;;;;;;5.58;93.77;99949.97;680148;28;2086;-55
2022/02/15 00:47:48;;;;;;;7.05;2.58;;;;;;;5.55;93.56;99957.72;677036;29;1731;-54
2022/02/15 00:48:09;;;;;;;8.73;2.78;;;;;;;5.55;94.59;99957.72;675809;29;4386;-52
2022/02/15 00:48:30;;;;;;;8.97;2.70;;;;;;;5.55;93.75;99947.38;677126;29;1363;-55
2022/02/15 00:48:52;;;;;;;7.53;2.75;;;;;;;5.56;93.64;99954.28;679025;29;928;-53
2022/02/15 00:49:12;;;;;;;5.80;2.70;;;;;;;5.57;94.39;99956.03;675508;29;2059;-54
2022/02/15 00:49:33;;;;;;;5.55;2.50;;;;;;;5.55;95.39;99957.72;678624;28;1494;-56
2022/02/15 00:49:53;;;;;;;8.00;3.60;;;;;;;5.53;95.48;99954.28;681833;28;3333;-53
2022/02/15 00:50:15;;;;;;;8.40;2.85;;;;;;;5.52;94.54;99962.91;679316;28;3497;-51
2022/02/15 00:50:35;;;;;;;8.55;2.72;;;;;;;5.51;94.74;99956.88;674284;29;2055;-52
2022/02/15 00:50:56;;;;;;;8.17;2.87;;;;;;;5.50;94.60;99956.84;672263;29;4736;-52
2022/02/15 00:51:16;;;;;;;8.18;2.80;;;;;;;5.49;94.71;99957.72;674802;29;1037;-52
2022/02/15 00:51:37;;;;;;;6.80;2.80;;;;;;;5.51;94.46;99963.75;673381;29;1333;-51
2022/02/15 00:51:58;;;;;;;6.60;2.60;;;;;;;5.50;95.25;99956.84;673627;29;1083;-54
2022/02/15 00:52:18;;;;;;;7.32;2.75;;;;;;;5.47;94.83;99955.13;674493;29;1159;-53
2022/02/15 00:52:39;;;;;;;6.80;2.60;;;;;;;5.49;94.16;99957.72;676066;29;3188;-53
2022/02/15 00:53:00;;;;;;;7.00;2.73;;;;;;;5.50;93.51;99957.72;675618;29;3461;-52
2022/02/15 00:53:20;;;;;;;6.90;2.80;;;;;;;5.52;93.41;99962.91;678298;28;1504;-51
2022/02/15 00:53:40;;;;;;;7.93;2.63;;;;;;;5.52;94.10;99962.91;680227;28;1109;-52
2022/02/15 00:54:01;;;;;;;8.02;2.80;;;;;;;5.52;93.90;99958.59;678403;28;4468;-53
2022/02/15 00:54:22;;;;;;;7.40;2.60;;;;;;;5.53;94.37;99967.25;682019;28;1144;-52
2022/02/15 00:54:42;;;;;;;7.17;2.47;;;;;;;5.52;94.82;99962.91;680953;28;1093;-50
2022/02/15 00:55:04;;;;;;;7.25;2.58;;;;;;;5.52;94.77;99963.78;681313;28;1227;-53
2022/02/15 00:55:25;;;;;;;7.70;2.72;;;;;;;5.52;94.76;99962.91;679986;29;1680;-52
2022/02/15 00:55:45;;;;;;;8.35;2.80;;;;;;;5.51;94.43;99962.06;679101;28;2642;-52
2022/02/15 00:56:07;;;;;;;6.63;2.40;;;;;;;5.49;95.34;99961.16;680462;28;1216;-52
2022/02/15 00:56:27;;;;;;;6.82;2.40;;;;;;;5.46;95.30;99962.00;681915;28;1514;-50
2022/02/15 00:56:47;;;;;;;7.20;3.00;;;;;;;5.44;95.56;99960.28;681492;28;1181;-53
2022/02/15 00:57:10;;;;;;;7.53;2.97;;;;;;;5.44;95.08;99961.16;681468;28;4303;-50
2022/02/15 00:57:31;;;;;;;7.28;2.60;;;;;;;5.44;96.08;99960.28;682215;28;1165;-50
2022/02/15 00:57:54;;;;;;;7.82;2.72;;;;;;;5.42;96.09;99960.25;684544;28;1683;-52
2022/02/15 00:58:15;;;;;;;7.60;2.67;;;;;;;5.41;96.36;99961.16;684360;28;1733;-53
2022/02/15 00:58:35;;;;;;;7.60;2.53;;;;;;;5.39;96.14;99956.81;683763;28;3485;-54
2022/02/15 00:58:56;;;;;;;5.97;2.50;;;;;;;5.39;95.93;99967.19;683653;28;2005;-53
2022/02/15 00:59:16;;;;;;;7.80;2.80;;;;;;;5.46;95.48;99961.16;681543;28;1159;-52
2022/02/15 00:59:38;;;;;;;8.27;2.80;;;;;;;5.48;95.59;99966.34;682221;28;1287;-50
2022/02/15 00:59:58;;;;;;;8.15;2.97;;;;;;;5.47;95.51;99960.31;678652;28;4593;-54
2022/02/15 01:00:18;;;;;;;7.38;2.78;;;;;;;5.47;95.00;99957.72;678338;29;1042;-51
2022/02/15 01:00:39;;;;;;;7.53;2.57;;;;;;;5.48;94.76;99950.78;678836;29;1101;-53
2022/02/15 01:01:00;;;;;;;6.47;2.53;;;;;;;5.49;94.51;99958.56;680754;28;1181;-54
2022/02/15 01:01:21;;;;;;;5.40;2.17;;;;;;;5.50;93.65;99956.84;678051;28;3596;-54
2022/02/15 01:01:48;;;;;;;7.05;2.53;;;;;;;5.48;95.64;99955.97;679651;28;1489;-55
2022/02/15 01:02:08;;;;;;;6.82;2.70;;;;;;;5.44;95.67;99955.97;682490;28;1478;-50
2022/02/15 01:02:30;;;;;;;7.43;2.65;;;;;;;5.43;95.73;99956.81;682008;28;1457;-52
2022/02/15 01:02:50;;;;;;;6.68;2.55;;;;;;;5.42;96.31;99962.84;681394;28;1483;-51
2022/02/15 01:03:10;;;;;;;5.90;2.70;;;;;;;5.42;96.38;99957.69;680630;28;4466;-50
2022/02/15 01:03:31;;;;;;;7.72;2.80;;;;;;;5.42;96.10;99956.81;681265;28;1236;-52
2022/02/15 01:03:51;;;;;;;8.17;2.53;;;;;;;5.41;95.91;99955.97;681043;28;1399;-51
2022/02/15 01:04:12;;;;;;;7.00;2.72;;;;;;;5.41;96.38;99955.97;680770;28;3677;-50
2022/02/15 01:04:33;;;;;;;7.50;2.80;;;;;;;5.41;95.78;99958.56;679181;28;1180;-50
2022/02/15 01:04:55;;;;;;;6.40;2.80;;;;;;;5.39;95.28;99959.41;681545;28;1236;-50
2022/02/15 01:05:16;;;;;;;7.05;2.75;;;;;;;5.39;95.61;99960.25;678708;28;1164;-51
2022/02/15 01:05:36;;;;;;;8.20;2.80;;;;;;;5.42;95.59;99967.19;679157;29;1288;-51
2022/02/15 01:05:59;;;;;;;7.97;2.90;;;;;;;5.40;95.87;99954.22;678785;28;4484;-51
2022/02/15 01:06:20;;;;;;;8.05;2.85;;;;;;;5.41;96.31;99955.97;677440;28;1981;-51
2022/02/15 01:06:40;;;;;;;7.97;2.70;;;;;;;5.43;95.94;99959.41;676894;29;1225;-53
2022/02/15 01:07:02;;;;;;;7.70;2.78;;;;;;;5.43;95.38;99966.34;679125;28;3448;-50
2022/02/15 01:07:23;;;;;;;7.60;2.72;;;;;;;5.43;95.43;99968.94;683605;28;1515;-55
2022/02/15 01:07:43;;;;;;;6.22;2.60;;;;;;;5.45;95.07;99962.00;679059;28;1026;-54
2022/02/15 01:08:04;;;;;;;7.40;2.63;;;;;;;5.46;94.62;99967.19;679340;28;1229;-52
2022/02/15 01:08:26;;;;;;;5.78;2.47;;;;;;;5.46;94.51;99966.34;677466;29;1158;-51
2022/02/15 01:08:47;;;;;;;7.35;2.70;;;;;;;5.49;94.52;99968.09;678276;29;1205;-52
2022/02/15 01:09:07;;;;;;;7.15;2.63;;;;;;;5.48;95.16;99968.94;675225;29;4296;-52
2022/02/15 01:09:28;;;;;;;7.80;2.40;;;;;;;5.48;95.48;99966.34;673226;29;1374;-54
2022/02/15 01:09:48;;;;;;;6.50;2.67;;;;;;;5.45;97.08;99968.09;675207;29;3227;-54
2022/02/15 01:10:09;;;;;;;7.53;2.97;;;;;;;5.43;97.10;99969.78;672912;29;2363;-51
2022/02/15 01:10:29;;;;;;;7.63;2.77;;;;;;;5.41;97.33;99966.34;673859;29;1137;-54
2022/02/15 01:10:50;;;;;;;8.53;2.80;;;;;;;5.42;95.92;99969.78;674760;29;1625;-51
2022/02/15 01:11:12;;;;;;;7.38;2.60;;;;;;;5.43;96.01;99971.53;675186;29;1109;-53
2022/02/15 01:11:33;;;;;;;7.85;2.45;;;;;;;5.42;97.19;99967.19;676006;29;1637;-51
2022/02/15 01:11:53;;;;;;;7.57;2.60;;;;;;;5.39;97.82;99968.03;673872;29;4486;-53
2022/02/15 01:12:13;;;;;;;7.13;2.70;;;;;;;5.40;97.63;99972.38;675881;29;1221;-54
2022/02/15 01:12:34;;;;;;;6.97;2.50;;;;;;;5.39;98.09;99972.38;678869;29;3214;-55
2022/02/15 01:12:54;;;;;;;6.93;2.60;;;;;;;5.37;98.04;99972.34;678535;28;2436;-52
2022/02/15 01:13:15;;;;;;;7.33;2.50;;;;;;;5.36;97.24;99973.22;679533;28;1038;-52
2022/02/15 01:13:36;;;;;;;7.75;2.72;;;;;;;5.37;97.80;99974.94;681646;28;1244;-50
2022/02/15 01:13:59;;;;;;;8.68;2.70;;;;;;;5.35;98.13;99971.47;681648;28;1484;-51
2022/02/15 01:14:20;;;;;;;6.60;2.70;;;;;;;5.35;97.09;99975.78;681015;28;1110;-53
2022/02/15 01:14:40;;;;;;;6.35;2.60;;;;;;;5.35;96.18;99976.66;679301;28;1391;-51
2022/02/15 01:15:01;;;;;;;7.97;2.67;;;;;;;5.38;95.77;99975.81;679216;28;4390;-51
2022/02/15 01:15:21;;;;;;;7.82;2.50;;;;;;;5.38;97.00;99974.06;676591;29;3338;-53
2022/02/15 01:15:42;;;;;;;7.15;3.20;;;;;;;5.38;97.48;99981.00;676965;29;2270;-52
2022/02/15 01:16:02;;;;;;;7.30;2.63;;;;;;;5.36;96.59;99975.81;679213;28;989;-54
2022/02/15 01:16:23;;;;;;;6.40;2.58;;;;;;;5.38;96.58;99981.00;676875;29;1227;-55
2022/02/15 01:16:44;;;;;;;8.17;2.63;;;;;;;5.39;96.92;99982.72;679661;28;1087;-52
2022/02/15 01:17:05;;;;;;;6.67;2.60;;;;;;;5.38;96.99;99976.66;677957;28;1564;-54
2022/02/15 01:17:25;;;;;;;7.60;2.47;;;;;;;5.40;97.80;99979.25;678541;29;1102;-54
2022/02/15 01:17:46;;;;;;;8.63;2.60;;;;;;;5.41;97.74;99979.28;678240;29;1238;-52
2022/02/15 01:18:07;;;;;;;8.60;2.50;;;;;;;5.44;96.28;99983.59;675532;29;4274;-51
2022/02/15 01:18:28;;;;;;;7.47;2.60;;;;;;;5.46;96.29;99980.16;675677;29;3599;-52
2022/02/15 01:18:49;;;;;;;5.63;2.60;;;;;;;5.48;96.50;99979.31;676786;29;1915;-50
2022/02/15 01:19:09;;;;;;;7.03;2.73;;;;;;;5.46;96.67;99982.75;679000;28;1444;-53
2022/02/15 01:19:30;;;;;;;7.88;2.58;;;;;;;5.46;96.47;99981.91;679206;29;1013;-54
2022/02/15 01:19:50;;;;;;;6.97;2.60;;;;;;;5.45;96.40;99978.44;680011;29;1244;-54
2022/02/15 01:20:11;;;;;;;5.55;2.50;;;;;;;5.42;97.12;99981.00;680046;28;1346;-50
2022/02/15 01:20:32;;;;;;;8.15;2.78;;;;;;;5.40;97.31;99977.56;678991;29;1022;-53
2022/02/15 01:20:53;;;;;;;8.90;2.80;;;;;;;5.36;98.13;99981.00;678218;28;4313;-50
2022/02/15 01:21:14;;;;;;;8.48;2.80;;;;;;;5.38;96.69;99981.84;679684;28;3251;-50
2022/02/15 01:21:34;;;;;;;8.07;2.87;;;;;;;5.39;96.06;99978.41;678258;28;1312;-53
2022/02/15 01:21:55;;;;;;;7.15;2.70;;;;;;;5.40;96.36;99972.38;677095;29;1241;-51
2022/02/15 01:22:15;;;;;;;6.43;2.70;;;;;;;5.42;95.88;99982.75;678562;28;888;-55
2022/02/15 01:22:36;;;;;;;6.93;2.90;;;;;;;5.41;96.65;99971.53;677646;29;1673;-52
2022/02/15 01:22:57;;;;;;;7.20;2.60;;;;;;;5.38;96.58;99979.25;679805;29;1052;-55
2022/02/15 01:23:17;;;;;;;7.03;2.55;;;;;;;5.38;96.82;99979.25;679808;28;946;-54
2022/02/15 01:23:38;;;;;;;7.57;2.70;;;;;;;5.37;97.53;99974.94;678459;29;1389;-53
2022/02/15 01:23:58;;;;;;;8.20;2.60;;;;;;;5.36;98.01;99972.31;677284;28;4331;-53
2022/02/15 01:24:19;;;;;;;8.82;2.60;;;;;;;5.36;97.34;99977.50;678454;28;904;-51
2022/02/15 01:24:39;;;;;;;6.97;2.63;;;;;;;5.38;97.42;99976.66;676328;29;1002;-51
2022/02/15 01:25:00;;;;;;;6.80;2.60;;;;;;;5.38;97.51;99981.84;673924;29;1401;-53
2022/02/15 01:25:20;;;;;;;7.70;2.43;;;;;;;5.38;96.69;99971.47;673670;29;1357;-52
2022/02/15 01:25:40;;;;;;;6.93;2.50;;;;;;;5.39;97.04;99977.53;674491;29;1335;-52
2022/02/15 01:26:01;;;;;;;6.20;2.50;;;;;;;5.36;98.50;99983.56;673925;29;1316;-54
2022/02/15 01:26:21;;;;;;;8.27;2.80;;;;;;;5.34;98.92;99974.91;673028;29;1266;-53
2022/02/15 01:26:41;;;;;;;7.43;2.83;;;;;;;5.33;98.77;99980.09;673320;29;1982;-51
2022/02/15 01:27:03;;;;;;;7.90;2.73;;;;;;;5.32;98.55;99981.81;673342;29;4661;-51
2022/02/15 01:27:24;;;;;;;10.02;3.05;;;;;;;5.30;98.06;99983.53;673121;29;1585;-52
2022/02/15 01:27:45;;;;;;;9.55;2.67;;;;;;;5.30;98.06;99978.34;672143;29;1480;-52
2022/02/15 01:28:06;;;;;;;6.85;2.55;;;;;;;5.28;98.46;99980.94;671861;29;1259;-54
2022/02/15 01:28:26;;;;;;;7.53;2.63;;;;;;;5.28;97.87;99980.06;673264;29;1100;-52
2022/02/15 01:28:48;;;;;;;7.15;2.95;;;;;;;5.31;96.82;99990.44;677156;29;1720;-52
2022/02/15 01:29:08;;;;;;;7.27;3.00;;;;;;;5.32;97.08;99980.94;676766;29;1355;-53
2022/02/15 01:29:29;;;;;;;7.13;2.70;;;;;;;5.32;97.80;99987.00;673560;29;1872;-52
2022/02/15 01:29:50;;;;;;;5.90;2.70;;;;;;;5.33;97.24;99985.28;672316;29;3695;-53
2022/02/15 01:30:11;;;;;;;6.50;2.80;;;;;;;5.35;96.33;99980.97;675078;29;4280;-51
2022/02/15 01:30:32;;;;;;;7.07;2.55;;;;;;;5.35;97.52;99979.25;675901;29;1271;-53
2022/02/15 01:30:52;;;;;;;7.43;2.85;;;;;;;5.34;97.94;99980.09;671354;29;2349;-54
2022/02/15 01:31:13;;;;;;;7.50;2.73;;;;;;;5.33;98.19;99978.38;672921;29;1319;-54
2022/02/15 01:31:34;;;;;;;7.82;2.70;;;;;;;5.32;98.12;99974.06;677293;29;929;-51
2022/02/15 01:31:54;;;;;;;7.07;2.60;;;;;;;5.33;97.12;99977.50;677200;29;1682;-53
2022/02/15 01:32:15;;;;;;;6.97;2.75;;;;;;;5.33;98.34;99980.09;677502;29;1269;-53
2022/02/15 01:32:35;;;;;;;6.72;2.58;;;;;;;5.33;98.11;99973.19;675596;29;3772;-52
2022/02/15 01:32:56;;;;;;;7.93;2.73;;;;;;;5.33;97.80;99977.50;675052;29;4397;-51
2022/02/15 01:33:16;;;;;;;7.43;2.90;;;;;;;5.35;97.30;99979.25;674982;29;1211;-53
2022/02/15 01:33:36;;;;;;;6.50;2.57;;;;;;;5.34;97.87;99984.41;675657;29;1185;-51
2022/02/15 01:33:58;;;;;;;7.47;2.88;;;;;;;5.33;98.06;99978.38;676102;29;1341;-53
2022/02/15 01:34:18;;;;;;;8.20;3.10;;;;;;;5.34;97.90;99980.09;674261;29;1281;-54
2022/02/15 01:34:39;;;;;;;8.35;2.97;;;;;;;5.35;98.14;99971.47;676515;29;984;-55
2022/02/15 01:35:01;;;;;;;7.63;2.67;;;;;;;5.35;98.79;99981.84;673864;29;1544;-51
2022/02/15 01:35:21;;;;;;;6.38;2.53;;;;;;;5.35;97.97;99976.66;675376;29;3554;-56
2022/02/15 01:35:42;;;;;;;7.13;2.63;;;;;;;5.39;97.98;99985.31;676679;29;1467;-51
2022/02/15 01:36:05;;;;;;;6.30;2.55;;;;;;;5.41;97.90;99975.81;675035;29;4465;-52
2022/02/15 01:36:26;;;;;;;6.50;2.50;;;;;;;5.42;97.75;99978.41;676953;29;1606;-51
2022/02/15 01:36:47;;;;;;;5.80;2.47;;;;;;;5.41;97.33;99974.13;677670;29;1097;-52
2022/02/15 01:37:13;;;;;;;6.22;2.67;;;;;;;5.39;98.85;99983.59;675499;29;2732;-51
2022/02/15 01:37:33;;;;;;;5.88;2.70;;;;;;;5.38;98.67;99976.66;674088;29;1370;-52
2022/02/15 01:37:54;;;;;;;8.80;3.10;;;;;;;5.38;98.01;99978.41;674505;29;1082;-51
2022/02/15 01:38:20;;;;;;;7.70;2.60;;;;;;;5.37;97.64;99976.66;675095;29;3372;-54
2022/02/15 01:38:44;;;;;;;7.22;2.90;;;;;;;5.38;96.72;99981.84;677014;29;1899;-55
2022/02/15 01:39:08;;;;;;;8.82;2.80;;;;;;;5.41;96.27;99981.88;674151;29;4326;-55
2022/02/15 01:39:32;;;;;;;7.18;2.50;;;;;;;5.39;97.49;99978.41;677110;29;1261;-55
2022/02/15 01:39:53;;;;;;;6.32;2.78;;;;;;;5.39;98.30;99982.72;677858;29;915;-53
2022/02/15 01:40:14;;;;;;;6.20;2.40;;;;;;;5.40;98.09;99980.16;675612;29;1297;-55
2022/02/15 01:40:35;;;;;;;5.93;2.35;;;;;;;5.37;98.25;99974.94;680436;29;1442;-55
2022/02/15 01:40:58;;;;;;;6.28;2.75;;;;;;;5.37;98.45;99982.72;683401;28;3159;-52
2022/02/15 01:41:19;;;;;;;6.75;2.55;;;;;;;5.37;97.63;99979.25;678753;28;1612;-52
2022/02/15 01:41:40;;;;;;;6.53;2.70;;;;;;;5.35;98.55;99978.38;678773;28;3448;-52
2022/02/15 01:42:01;;;;;;;8.10;2.88;;;;;;;5.35;98.69;99981.84;676622;28;4475;-55
2022/02/15 01:42:21;;;;;;;8.45;2.80;;;;;;;5.34;99.39;99980.09;677768;29;1374;-53
2022/02/15 01:42:41;;;;;;;8.17;2.87;;;;;;;5.33;98.30;99978.38;676447;29;1333;-51